Time;durP1;ratioP1;P1;durP2;ratioP2;P2;SDS_P1;SDS_P2;PMS_P1;PMS_P2;Temp;Humidity;BMP_temperature;BMP_pressure;BME280_temperature;BME280_humidity;BME280_pressure;Samples;Min_cycle;Max_cycle;Signal;HPM_P1;HPM_P2
2022/01/08 00:01:13;;;;;;;23.33;15.63;;;;;;;;;;5012719;28;20022;-65
2022/01/08 00:03:40;;;;;;;21.17;15.27;;;;;;;;;;5015120;28;20022;-65
2022/01/08 00:06:06;;;;;;;18.90;15.03;;;;;;;;;;5021185;28;20107;-65
2022/01/08 00:08:32;;;;;;;24.40;15.57;;;;;;;;;;5002002;28;20049;-65
2022/01/08 00:10:59;;;;;;;20.97;15.27;;;;;;;;;;5014872;28;20029;-65
2022/01/08 00:13:25;;;;;;;23.80;16.43;;;;;;;;;;5011429;28;20422;-65
2022/01/08 00:15:51;;;;;;;20.30;14.60;;;;;;;;;;5016019;28;20396;-65
2022/01/08 00:18:17;;;;;;;21.47;15.20;;;;;;;;;;5014807;28;20041;-65
2022/01/08 00:20:43;;;;;;;25.10;16.57;;;;;;;;;;5014846;28;20037;-65
2022/01/08 00:23:10;;;;;;;24.67;16.07;;;;;;;;;;5015059;28;20394;-65
2022/01/08 00:25:36;;;;;;;23.90;15.73;;;;;;;;;;5014302;28;20030;-65
2022/01/08 00:28:02;;;;;;;26.33;17.83;;;;;;;;;;5015331;28;20033;-65
2022/01/08 00:30:30;;;;;;;25.07;17.10;;;;;;;;;;5014740;28;20065;-65
2022/01/08 00:32:56;;;;;;;25.83;18.03;;;;;;;;;;5014814;28;20018;-65
2022/01/08 00:35:23;;;;;;;28.17;18.27;;;;;;;;;;5000193;28;20125;-65
2022/01/08 00:37:51;;;;;;;24.17;17.63;;;;;;;;;;5014345;28;20489;-65
2022/01/08 00:40:17;;;;;;;28.17;18.20;;;;;;;;;;5014523;28;20026;-65
2022/01/08 00:42:43;;;;;;;23.90;17.53;;;;;;;;;;5014228;28;20080;-65
2022/01/08 00:45:09;;;;;;;23.70;15.97;;;;;;;;;;5015185;28;20026;-65
2022/01/08 00:47:36;;;;;;;24.57;16.03;;;;;;;;;;5014700;28;20026;-65
2022/01/08 00:50:04;;;;;;;21.50;15.03;;;;;;;;;;5011997;28;20020;-65
2022/01/08 00:52:30;;;;;;;20.13;15.70;;;;;;;;;;5011268;28;20113;-65
2022/01/08 00:54:56;;;;;;;18.47;13.20;;;;;;;;;;5013973;28;20037;-65
2022/01/08 00:57:22;;;;;;;20.97;15.43;;;;;;;;;;4997132;28;20068;-65
2022/01/08 00:59:48;;;;;;;19.17;13.63;;;;;;;;;;5014052;28;20472;-65
2022/01/08 01:02:14;;;;;;;20.70;14.10;;;;;;;;;;5014318;28;20033;-65
2022/01/08 01:04:40;;;;;;;19.63;14.10;;;;;;;;;;5013073;28;20037;-65
2022/01/08 01:07:06;;;;;;;21.73;14.77;;;;;;;;;;5008841;28;20022;-65
2022/01/08 01:09:32;;;;;;;17.20;12.77;;;;;;;;;;4997058;28;20021;-65
2022/01/08 01:11:58;;;;;;;25.37;15.10;;;;;;;;;;5013629;28;20511;-65
2022/01/08 01:14:25;;;;;;;20.83;13.87;;;;;;;;;;5014370;28;20084;-65
2022/01/08 01:16:53;;;;;;;18.67;13.60;;;;;;;;;;5012376;28;20107;-65
2022/01/08 01:19:21;;;;;;;19.70;15.23;;;;;;;;;;5013571;28;20100;-65
2022/01/08 01:21:47;;;;;;;22.90;14.60;;;;;;;;;;5014194;28;20032;-65
2022/01/08 01:24:18;;;;;;;23.23;15.07;;;;;;;;;;5013229;28;20025;-65
2022/01/08 01:27:08;;;;;;;20.47;15.00;;;;;;;;;;5009544;28;20026;-65
2022/01/08 01:48:21;;;;;;;17.42;11.00;;;;;;;;;;5013666;28;20061;-65
2022/01/08 01:50:47;;;;;;;15.87;11.50;;;;;;;;;;4996153;28;20460;-65
2022/01/08 01:53:14;;;;;;;20.70;12.03;;;;;;;;;;5013139;28;20045;-65
2022/01/08 01:55:41;;;;;;;17.17;12.10;;;;;;;;;;5013761;28;20041;-65
2022/01/08 01:58:08;;;;;;;19.87;12.40;;;;;;;;;;5013824;28;20168;-65
2022/01/08 02:00:34;;;;;;;16.30;13.17;;;;;;;;;;4996427;28;20034;-65
2022/01/08 02:03:01;;;;;;;17.73;12.63;;;;;;;;;;5012028;28;20034;-65
2022/01/08 02:05:27;;;;;;;18.27;12.70;;;;;;;;;;5012400;28;20033;-65
2022/01/08 02:07:57;;;;;;;18.23;12.37;;;;;;;;;;5012629;28;20518;-65
2022/01/08 02:10:24;;;;;;;16.50;12.60;;;;;;;;;;5011841;28;20088;-65
2022/01/08 02:12:50;;;;;;;20.17;12.87;;;;;;;;;;5001415;28;20041;-65
2022/01/08 02:15:16;;;;;;;18.13;12.63;;;;;;;;;;5010854;28;20036;-65
2022/01/08 02:17:42;;;;;;;20.70;13.43;;;;;;;;;;5012744;28;20026;-65
2022/01/08 02:20:09;;;;;;;19.27;13.17;;;;;;;;;;5010512;28;20041;-65
2022/01/08 02:22:35;;;;;;;19.03;13.43;;;;;;;;;;5010450;28;20030;-65
2022/01/08 02:25:01;;;;;;;17.90;12.67;;;;;;;;;;5004774;28;20422;-65
2022/01/08 02:27:27;;;;;;;22.33;12.87;;;;;;;;;;5014656;28;20026;-65
2022/01/08 02:29:54;;;;;;;16.67;12.03;;;;;;;;;;5013210;28;20125;-65
2022/01/08 02:32:26;;;;;;;19.27;12.80;;;;;;;;;;5012998;28;20030;-65
2022/01/08 02:34:52;;;;;;;21.17;12.47;;;;;;;;;;5013475;28;20034;-65
2022/01/08 02:37:19;;;;;;;19.33;12.83;;;;;;;;;;5012244;28;20434;-65
2022/01/08 02:39:48;;;;;;;22.07;13.07;;;;;;;;;;4984279;28;20388;-65
2022/01/08 02:42:17;;;;;;;21.53;14.03;;;;;;;;;;5012023;28;20212;-65
2022/01/08 02:44:44;;;;;;;22.97;13.80;;;;;;;;;;5010262;28;20076;-65
2022/01/08 02:47:10;;;;;;;24.13;15.70;;;;;;;;;;5012333;28;20029;-65
2022/01/08 02:49:37;;;;;;;22.10;15.97;;;;;;;;;;5007839;28;20029;-65
2022/01/08 02:52:04;;;;;;;22.67;17.60;;;;;;;;;;5010731;28;20030;-64
2022/01/08 02:54:30;;;;;;;24.73;16.17;;;;;;;;;;5008231;28;20510;-65
2022/01/08 02:56:56;;;;;;;27.00;17.30;;;;;;;;;;5009909;28;20092;-65
2022/01/08 02:59:22;;;;;;;26.87;16.93;;;;;;;;;;5005377;28;20025;-65
2022/01/08 03:01:48;;;;;;;24.10;17.07;;;;;;;;;;4983322;28;20082;-65
2022/01/08 03:04:15;;;;;;;25.07;17.33;;;;;;;;;;5004958;28;20033;-65
2022/01/08 03:06:41;;;;;;;28.00;19.10;;;;;;;;;;5010676;28;20061;-64
2022/01/08 03:09:08;;;;;;;25.77;18.47;;;;;;;;;;5011565;28;20034;-65
2022/01/08 03:11:34;;;;;;;25.33;18.63;;;;;;;;;;5013613;28;20065;-65
2022/01/08 03:14:00;;;;;;;28.60;20.00;;;;;;;;;;5004682;28;20558;-65
2022/01/08 03:16:26;;;;;;;27.47;19.53;;;;;;;;;;5014705;28;20045;-65
2022/01/08 03:18:52;;;;;;;30.70;20.27;;;;;;;;;;5017106;28;20104;-65
2022/01/08 03:21:21;;;;;;;22.43;18.73;;;;;;;;;;5018011;28;20150;-65
2022/01/08 03:23:53;;;;;;;30.40;19.90;;;;;;;;;;5016678;28;20036;-65
2022/01/08 03:26:20;;;;;;;24.87;19.50;;;;;;;;;;5015219;28;20097;-65
2022/01/08 03:28:46;;;;;;;23.03;18.57;;;;;;;;;;5016997;28;20030;-64
2022/01/08 03:31:13;;;;;;;27.00;18.97;;;;;;;;;;5016175;28;20105;-65
2022/01/08 03:33:39;;;;;;;29.27;19.37;;;;;;;;;;5017068;28;20112;-65
2022/01/08 03:36:06;;;;;;;24.27;17.23;;;;;;;;;;5004435;28;20030;-65
2022/01/08 03:38:32;;;;;;;27.77;20.33;;;;;;;;;;4995735;28;20017;-64
2022/01/08 03:40:58;;;;;;;26.90;19.93;;;;;;;;;;5014478;28;20116;-65
2022/01/08 03:43:25;;;;;;;23.83;15.53;;;;;;;;;;5013584;28;20017;-65
2022/01/08 03:45:51;;;;;;;23.37;15.83;;;;;;;;;;5013889;28;20112;-65
2022/01/08 03:50:43;;;;;;;30.33;18.83;;;;;;;;;;5006677;28;20041;-65
2022/01/08 03:53:09;;;;;;;28.10;20.50;;;;;;;;;;5015692;28;20026;-64
2022/01/08 03:55:35;;;;;;;25.57;19.23;;;;;;;;;;5013613;28;20034;-65
2022/01/08 03:58:01;;;;;;;27.40;19.27;;;;;;;;;;5016722;28;20049;-65
2022/01/08 04:00:27;;;;;;;27.63;19.47;;;;;;;;;;5007054;28;20043;-65
2022/01/08 04:02:54;;;;;;;31.80;20.13;;;;;;;;;;5018269;28;20028;-64
2022/01/08 04:05:20;;;;;;;24.70;18.00;;;;;;;;;;5015638;28;21490;-65
2022/01/08 04:07:46;;;;;;;27.23;18.97;;;;;;;;;;4997939;28;20030;-65
2022/01/08 04:10:13;;;;;;;23.37;16.17;;;;;;;;;;5015279;28;20453;-65
2022/01/08 04:12:47;;;;;;;21.50;15.10;;;;;;;;;;5010641;28;20022;-64
2022/01/08 04:17:48;;;;;;;22.73;14.33;;;;;;;;;;5015301;28;20034;-64
2022/01/08 04:20:14;;;;;;;19.43;13.87;;;;;;;;;;5023282;28;20048;-64
2022/01/08 04:22:40;;;;;;;21.63;15.10;;;;;;;;;;5015269;28;20021;-65
2022/01/08 04:25:07;;;;;;;19.70;15.17;;;;;;;;;;5011981;28;20395;-65
2022/01/08 04:27:33;;;;;;;22.60;15.90;;;;;;;;;;5013937;28;20029;-65
2022/01/08 04:29:59;;;;;;;21.33;15.50;;;;;;;;;;5014579;28;20036;-65
2022/01/08 04:32:25;;;;;;;22.07;16.27;;;;;;;;;;5014320;28;20022;-64
2022/01/08 04:34:51;;;;;;;20.93;15.40;;;;;;;;;;5016365;28;20033;-65
2022/01/08 04:37:17;;;;;;;23.07;15.83;;;;;;;;;;5017302;28;20044;-65
2022/01/08 04:39:43;;;;;;;22.40;15.93;;;;;;;;;;5017817;28;20427;-65
2022/01/08 04:42:09;;;;;;;24.50;16.90;;;;;;;;;;5013720;28;20084;-64
2022/01/08 04:44:35;;;;;;;22.10;15.57;;;;;;;;;;5010920;28;20081;-65
2022/01/08 04:47:01;;;;;;;24.10;15.83;;;;;;;;;;5009070;28;20476;-64
2022/01/08 04:49:27;;;;;;;23.50;16.17;;;;;;;;;;5014136;28;20100;-65
2022/01/08 04:51:54;;;;;;;22.87;16.37;;;;;;;;;;5014313;28;20028;-65
2022/01/08 04:54:20;;;;;;;26.03;16.93;;;;;;;;;;5014872;28;20030;-64
2022/01/08 04:56:46;;;;;;;24.80;17.13;;;;;;;;;;5014271;28;20461;-65
2022/01/08 04:59:12;;;;;;;26.43;17.50;;;;;;;;;;5012730;28;20077;-65
2022/01/08 05:01:38;;;;;;;26.50;18.80;;;;;;;;;;5013283;28;20104;-64
2022/01/08 05:04:05;;;;;;;25.90;18.57;;;;;;;;;;5014510;28;20105;-65
2022/01/08 05:06:31;;;;;;;26.00;17.00;;;;;;;;;;5014346;28;20030;-65
2022/01/08 05:08:57;;;;;;;23.97;18.23;;;;;;;;;;5011180;28;20027;-65
2022/01/08 05:11:23;;;;;;;25.17;17.67;;;;;;;;;;5013680;28;20061;-65
2022/01/08 05:13:50;;;;;;;25.73;17.70;;;;;;;;;;5014533;28;20053;-64
2022/01/08 05:16:16;;;;;;;24.27;18.83;;;;;;;;;;5011005;28;20034;-65
2022/01/08 05:18:43;;;;;;;23.30;18.57;;;;;;;;;;5013651;28;20057;-65
2022/01/08 05:21:24;;;;;;;26.90;18.47;;;;;;;;;;5014202;28;20033;-64
2022/01/08 05:23:50;;;;;;;26.67;18.57;;;;;;;;;;5000845;28;20053;-65
2022/01/08 05:26:17;;;;;;;25.93;19.03;;;;;;;;;;4995715;28;20029;-65
2022/01/08 05:28:44;;;;;;;25.07;18.27;;;;;;;;;;5013572;28;20053;-64
2022/01/08 05:31:10;;;;;;;25.27;18.33;;;;;;;;;;4995836;28;20029;-65
2022/01/08 05:33:36;;;;;;;29.00;19.63;;;;;;;;;;5010705;28;20056;-64
2022/01/08 05:36:02;;;;;;;27.37;18.63;;;;;;;;;;5011425;28;20073;-64
2022/01/08 05:38:28;;;;;;;24.30;19.03;;;;;;;;;;5004595;28;20080;-64
2022/01/08 05:40:54;;;;;;;26.03;19.33;;;;;;;;;;5005988;28;20038;-65
2022/01/08 05:43:20;;;;;;;26.00;19.23;;;;;;;;;;5008838;28;20435;-65
2022/01/08 05:45:46;;;;;;;26.60;19.03;;;;;;;;;;5019865;28;20060;-65
2022/01/08 05:48:13;;;;;;;30.50;19.87;;;;;;;;;;5012234;28;20448;-65
2022/01/08 05:50:39;;;;;;;24.47;18.80;;;;;;;;;;5011924;28;20095;-65
2022/01/08 05:53:05;;;;;;;27.00;19.17;;;;;;;;;;5013358;28;20048;-65
2022/01/08 05:55:31;;;;;;;28.03;19.87;;;;;;;;;;5013678;28;20124;-65
2022/01/08 05:57:58;;;;;;;24.83;18.53;;;;;;;;;;5011397;28;21703;-65
2022/01/08 06:00:24;;;;;;;25.97;19.30;;;;;;;;;;5011235;28;20531;-65
2022/01/08 06:02:50;;;;;;;24.70;17.27;;;;;;;;;;5012620;28;20053;-65
2022/01/08 06:05:16;;;;;;;24.87;19.10;;;;;;;;;;5011703;28;20068;-65
2022/01/08 06:07:42;;;;;;;26.80;18.43;;;;;;;;;;5015234;28;20506;-65
2022/01/08 06:10:08;;;;;;;25.50;17.53;;;;;;;;;;5004696;28;20026;-65
2022/01/08 06:12:34;;;;;;;26.03;18.63;;;;;;;;;;5011293;28;20033;-64
2022/01/08 06:15:00;;;;;;;27.07;19.63;;;;;;;;;;5016690;28;20136;-65
2022/01/08 06:17:26;;;;;;;26.03;19.30;;;;;;;;;;5013577;28;20026;-65
2022/01/08 06:19:52;;;;;;;27.97;19.27;;;;;;;;;;5012607;28;20399;-64
2022/01/08 06:22:18;;;;;;;25.77;19.73;;;;;;;;;;5012165;28;20076;-64
2022/01/08 06:24:44;;;;;;;26.83;18.57;;;;;;;;;;5012586;28;20121;-65
2022/01/08 06:27:10;;;;;;;28.70;18.83;;;;;;;;;;5011897;28;20029;-65
2022/01/08 06:29:36;;;;;;;28.27;19.40;;;;;;;;;;5013119;28;20026;-65
2022/01/08 06:32:02;;;;;;;26.60;18.43;;;;;;;;;;5011937;28;20032;-65
2022/01/08 06:34:28;;;;;;;24.70;17.77;;;;;;;;;;5012798;28;20042;-65
2022/01/08 06:36:54;;;;;;;25.87;18.10;;;;;;;;;;5012661;28;20401;-65
2022/01/08 06:39:20;;;;;;;27.07;18.33;;;;;;;;;;5008612;28;20027;-65
2022/01/08 06:41:46;;;;;;;25.30;19.43;;;;;;;;;;4998786;28;20531;-65
2022/01/08 06:44:13;;;;;;;25.60;18.73;;;;;;;;;;5004592;28;20034;-65
2022/01/08 06:46:40;;;;;;;25.43;18.97;;;;;;;;;;5014568;28;20532;-65
2022/01/08 06:49:06;;;;;;;24.57;18.43;;;;;;;;;;4997916;28;20129;-64
2022/01/08 06:51:32;;;;;;;25.10;16.67;;;;;;;;;;4994041;28;20030;-64
2022/01/08 06:53:58;;;;;;;20.67;16.73;;;;;;;;;;4994925;28;20021;-64
2022/01/08 06:56:24;;;;;;;22.73;16.40;;;;;;;;;;5011889;28;20029;-64
2022/01/08 06:58:50;;;;;;;21.40;15.33;;;;;;;;;;5018173;28;20029;-64
2022/01/08 07:01:16;;;;;;;22.47;16.53;;;;;;;;;;5009663;28;20056;-64
2022/01/08 07:03:42;;;;;;;23.47;16.17;;;;;;;;;;5012882;28;20391;-64
2022/01/08 07:06:08;;;;;;;20.30;16.33;;;;;;;;;;5010690;28;20022;-64
2022/01/08 07:08:34;;;;;;;23.33;16.43;;;;;;;;;;5010771;28;20026;-65
2022/01/08 07:11:01;;;;;;;24.50;15.57;;;;;;;;;;5012101;28;20029;-64
2022/01/08 07:13:27;;;;;;;20.00;16.07;;;;;;;;;;5010062;28;20065;-64
2022/01/08 07:15:53;;;;;;;22.93;17.47;;;;;;;;;;5012881;28;20113;-64
2022/01/08 07:18:20;;;;;;;22.23;16.20;;;;;;;;;;5007761;28;20034;-64
2022/01/08 07:20:46;;;;;;;21.17;16.10;;;;;;;;;;5010245;28;20037;-64
2022/01/08 07:23:12;;;;;;;21.47;16.03;;;;;;;;;;5012155;28;20116;-64
2022/01/08 07:25:38;;;;;;;21.63;16.33;;;;;;;;;;5012202;28;20104;-64
2022/01/08 07:28:04;;;;;;;21.37;15.97;;;;;;;;;;5009904;28;20121;-64
2022/01/08 07:30:30;;;;;;;23.37;16.87;;;;;;;;;;5012867;28;20038;-64
2022/01/08 07:32:56;;;;;;;26.73;18.53;;;;;;;;;;5011812;28;20026;-64
2022/01/08 07:35:22;;;;;;;20.03;15.97;;;;;;;;;;5008390;28;20373;-64
2022/01/08 07:37:49;;;;;;;22.70;16.27;;;;;;;;;;4993677;28;20037;-64
2022/01/08 07:40:15;;;;;;;22.50;16.73;;;;;;;;;;5012981;28;20515;-64
2022/01/08 07:42:42;;;;;;;22.93;17.20;;;;;;;;;;5011817;28;20037;-64
2022/01/08 07:45:08;;;;;;;25.17;19.30;;;;;;;;;;5012841;28;20041;-64
2022/01/08 07:47:35;;;;;;;25.20;17.83;;;;;;;;;;5012054;28;20172;-64
2022/01/08 07:50:01;;;;;;;27.90;18.03;;;;;;;;;;5027332;28;20037;-65
2022/01/08 07:52:27;;;;;;;25.43;18.33;;;;;;;;;;5012626;28;20055;-64
2022/01/08 07:54:53;;;;;;;25.33;17.80;;;;;;;;;;5007008;28;20042;-64
2022/01/08 07:57:19;;;;;;;22.60;18.10;;;;;;;;;;5012589;28;20052;-64
2022/01/08 07:59:45;;;;;;;21.23;18.07;;;;;;;;;;5016483;28;20527;-64
2022/01/08 08:02:11;;;;;;;27.53;18.67;;;;;;;;;;5015298;28;20468;-64
2022/01/08 08:04:37;;;;;;;28.33;19.63;;;;;;;;;;5015991;28;20490;-64
2022/01/08 08:07:04;;;;;;;29.20;19.20;;;;;;;;;;5015278;28;20026;-64
2022/01/08 08:09:30;;;;;;;27.80;19.70;;;;;;;;;;5007093;28;20140;-64
2022/01/08 08:11:56;;;;;;;26.37;19.13;;;;;;;;;;5014707;28;20400;-64
2022/01/08 08:14:22;;;;;;;32.07;19.93;;;;;;;;;;5014301;28;20551;-64
2022/01/08 08:16:48;;;;;;;28.23;19.33;;;;;;;;;;5013900;28;20503;-64
2022/01/08 08:19:14;;;;;;;28.90;20.03;;;;;;;;;;5014117;28;20030;-64
2022/01/08 08:21:40;;;;;;;28.67;19.83;;;;;;;;;;5013827;28;20029;-64
2022/01/08 08:24:06;;;;;;;28.30;19.97;;;;;;;;;;5005425;28;20392;-64
2022/01/08 08:26:33;;;;;;;27.00;20.73;;;;;;;;;;5014661;28;20030;-64
2022/01/08 08:28:59;;;;;;;29.67;20.13;;;;;;;;;;4996542;28;20127;-64
2022/01/08 08:31:25;;;;;;;32.10;20.00;;;;;;;;;;5014513;28;20030;-64
2022/01/08 08:33:51;;;;;;;27.10;19.23;;;;;;;;;;5011474;28;20058;-64
2022/01/08 08:36:17;;;;;;;25.20;20.03;;;;;;;;;;4998031;28;20113;-64
2022/01/08 08:38:43;;;;;;;29.93;20.80;;;;;;;;;;4997125;28;20026;-65
2022/01/08 08:41:10;;;;;;;30.20;19.70;;;;;;;;;;5015376;28;20060;-65
2022/01/08 08:43:36;;;;;;;28.00;19.97;;;;;;;;;;5012881;28;20471;-64
2022/01/08 08:46:02;;;;;;;30.00;20.63;;;;;;;;;;5009983;28;20387;-64
2022/01/08 08:48:28;;;;;;;29.07;21.57;;;;;;;;;;5013915;28;20040;-65
2022/01/08 08:50:54;;;;;;;30.87;22.57;;;;;;;;;;5011295;28;20038;-65
2022/01/08 08:53:20;;;;;;;28.50;20.23;;;;;;;;;;4997489;28;20080;-65
2022/01/08 08:55:48;;;;;;;25.83;20.87;;;;;;;;;;5014359;28;20041;-65
2022/01/08 08:58:14;;;;;;;29.20;21.27;;;;;;;;;;5012779;28;20435;-66
2022/01/08 09:00:40;;;;;;;27.37;21.57;;;;;;;;;;5017064;28;20057;-64
2022/01/08 09:03:06;;;;;;;27.03;20.67;;;;;;;;;;5010081;28;20034;-64
2022/01/08 09:05:32;;;;;;;29.23;20.60;;;;;;;;;;5014547;28;20034;-65
2022/01/08 09:07:58;;;;;;;30.13;21.07;;;;;;;;;;5013824;28;20100;-64
2022/01/08 09:10:25;;;;;;;33.27;22.33;;;;;;;;;;5013323;28;20084;-64
2022/01/08 09:12:51;;;;;;;30.37;21.53;;;;;;;;;;5011290;28;20048;-64
2022/01/08 09:15:21;;;;;;;27.30;21.67;;;;;;;;;;5015210;28;20476;-64
2022/01/08 09:17:49;;;;;;;30.70;21.63;;;;;;;;;;5013960;28;20029;-64
2022/01/08 09:20:15;;;;;;;27.23;20.80;;;;;;;;;;4994917;28;20557;-64
2022/01/08 09:22:41;;;;;;;27.17;20.20;;;;;;;;;;5006663;28;20034;-64
2022/01/08 09:25:08;;;;;;;28.10;20.23;;;;;;;;;;5014984;28;20484;-65
2022/01/08 09:27:34;;;;;;;28.97;20.30;;;;;;;;;;5005825;28;20132;-65
2022/01/08 09:30:01;;;;;;;28.00;20.47;;;;;;;;;;5017637;28;20029;-64
2022/01/08 09:32:27;;;;;;;32.63;20.53;;;;;;;;;;5012081;28;20026;-64
2022/01/08 09:34:53;;;;;;;28.37;20.47;;;;;;;;;;5011328;28;20045;-65
2022/01/08 09:37:19;;;;;;;24.43;20.20;;;;;;;;;;5000940;28;20029;-64
2022/01/08 09:39:46;;;;;;;31.07;22.87;;;;;;;;;;5013751;28;20399;-65
2022/01/08 09:42:12;;;;;;;28.00;21.37;;;;;;;;;;5015429;28;20018;-65
2022/01/08 09:44:39;;;;;;;27.57;21.40;;;;;;;;;;5011894;28;20026;-65
2022/01/08 09:47:05;;;;;;;29.83;20.70;;;;;;;;;;5010288;28;20029;-64
2022/01/08 09:49:32;;;;;;;24.77;20.80;;;;;;;;;;5015368;28;20021;-64
2022/01/08 09:51:58;;;;;;;31.03;21.70;;;;;;;;;;5014653;28;20499;-64
2022/01/08 09:54:27;;;;;;;32.10;21.13;;;;;;;;;;5011095;28;20037;-64
2022/01/08 09:56:53;;;;;;;27.83;21.57;;;;;;;;;;5011488;28;20124;-65
2022/01/08 09:59:19;;;;;;;24.47;19.80;;;;;;;;;;5010099;28;20110;-73
2022/01/08 10:01:52;;;;;;;25.57;19.40;;;;;;;;;;5011782;28;20034;-64
2022/01/08 10:04:23;;;;;;;24.33;20.17;;;;;;;;;;5012497;28;20435;-64
2022/01/08 10:06:49;;;;;;;25.70;20.33;;;;;;;;;;5011218;28;20041;-64
2022/01/08 10:09:15;;;;;;;26.83;19.13;;;;;;;;;;5010564;28;20026;-64
2022/01/08 10:11:49;;;;;;;25.83;19.60;;;;;;;;;;5013331;28;20498;-64
2022/01/08 10:14:28;;;;;;;24.47;19.60;;;;;;;;;;5011640;28;20088;-63
2022/01/08 10:19:38;;;;;;;29.83;22.73;;;;;;;;;;5012497;28;20113;-64
2022/01/08 10:22:15;;;;;;;25.57;20.37;;;;;;;;;;5010968;28;20113;-64
2022/01/08 10:24:41;;;;;;;27.03;20.93;;;;;;;;;;4996371;28;20033;-64
2022/01/08 10:27:07;;;;;;;28.77;21.40;;;;;;;;;;5024621;28;20033;-63
2022/01/08 10:29:34;;;;;;;26.23;22.53;;;;;;;;;;5013613;28;20034;-64
2022/01/08 10:32:00;;;;;;;29.23;20.97;;;;;;;;;;5012194;28;20065;-64
2022/01/08 10:34:28;;;;;;;27.27;21.20;;;;;;;;;;5013628;28;20076;-64
2022/01/08 10:36:54;;;;;;;28.13;21.97;;;;;;;;;;5011659;28;20164;-64
2022/01/08 10:39:31;;;;;;;26.57;20.93;;;;;;;;;;5011480;28;20108;-64
2022/01/08 10:42:17;;;;;;;25.90;20.23;;;;;;;;;;5012389;28;20072;-64
2022/01/08 10:44:46;;;;;;;32.10;22.87;;;;;;;;;;5014284;28;20179;-64
2022/01/08 10:47:19;;;;;;;29.70;22.27;;;;;;;;;;5027925;28;20030;-64
2022/01/08 10:49:49;;;;;;;28.27;22.70;;;;;;;;;;4994055;28;20041;-64
2022/01/08 10:52:17;;;;;;;26.73;22.00;;;;;;;;;;5012427;28;20112;-64
2022/01/08 10:54:43;;;;;;;29.47;24.57;;;;;;;;;;5013524;28;20034;-64
2022/01/08 10:57:12;;;;;;;26.63;21.23;;;;;;;;;;5012548;28;20036;-64
2022/01/08 10:59:38;;;;;;;25.53;21.20;;;;;;;;;;5004134;28;20026;-64
2022/01/08 11:02:06;;;;;;;25.73;20.67;;;;;;;;;;5000996;28;20022;-64
2022/01/08 11:04:41;;;;;;;28.20;21.47;;;;;;;;;;5013121;28;20032;-64
2022/01/08 11:07:07;;;;;;;29.57;22.23;;;;;;;;;;5012953;28;20113;-64
2022/01/08 11:09:35;;;;;;;24.80;20.87;;;;;;;;;;4994905;28;20173;-64
2022/01/08 11:12:02;;;;;;;25.90;21.23;;;;;;;;;;5011970;28;20064;-64
2022/01/08 11:17:27;;;;;;;26.70;22.10;;;;;;;;;;5001132;28;20041;-64
2022/01/08 11:19:56;;;;;;;33.30;24.30;;;;;;;;;;5012830;28;20114;-64
2022/01/08 11:22:23;;;;;;;33.67;24.03;;;;;;;;;;5012676;28;20026;-64
2022/01/08 11:24:58;;;;;;;31.23;24.83;;;;;;;;;;5012760;28;20037;-64
2022/01/08 11:27:29;;;;;;;34.10;26.05;;;;;;;;;;5012418;28;20049;-64
2022/01/08 11:29:57;;;;;;;34.33;26.37;;;;;;;;;;5012663;28;20507;-64
2022/01/08 11:32:25;;;;;;;36.90;26.80;;;;;;;;;;5006954;28;20487;-64
2022/01/08 11:34:52;;;;;;;38.13;27.37;;;;;;;;;;5016667;28;20460;-64
2022/01/08 11:37:18;;;;;;;32.13;26.00;;;;;;;;;;5016039;28;20168;-64
2022/01/08 11:39:44;;;;;;;35.30;26.40;;;;;;;;;;5016815;28;20034;-64
2022/01/08 11:42:13;;;;;;;36.77;26.87;;;;;;;;;;5011460;28;20109;-65
2022/01/08 11:44:39;;;;;;;33.50;27.20;;;;;;;;;;5013734;28;20032;-65
2022/01/08 11:47:05;;;;;;;40.53;28.63;;;;;;;;;;5013530;28;20029;-65
2022/01/08 11:49:31;;;;;;;39.13;28.10;;;;;;;;;;5014824;28;20426;-66
2022/01/08 11:52:16;;;;;;;36.10;27.80;;;;;;;;;;5016297;28;20033;-65
2022/01/08 11:54:43;;;;;;;32.28;25.58;;;;;;;;;;5013624;28;20045;-65
2022/01/08 11:57:23;;;;;;;33.30;27.73;;;;;;;;;;5006104;28;20026;-66
2022/01/08 11:59:49;;;;;;;36.13;27.57;;;;;;;;;;5003271;28;20038;-66
2022/01/08 12:02:16;;;;;;;33.57;26.13;;;;;;;;;;5009988;28;20057;-65
2022/01/08 12:04:48;;;;;;;32.17;27.30;;;;;;;;;;5012069;28;20395;-65
2022/01/08 12:07:35;;;;;;;33.40;27.17;;;;;;;;;;5006079;28;20033;-65
2022/01/08 12:10:24;;;;;;;31.50;26.37;;;;;;;;;;5014129;28;20383;-66
2022/01/08 12:12:54;;;;;;;32.60;26.20;;;;;;;;;;5006482;28;20030;-66
2022/01/08 12:15:39;;;;;;;33.73;26.77;;;;;;;;;;5014865;28;20033;-66
2022/01/08 12:18:06;;;;;;;33.22;25.65;;;;;;;;;;5013936;28;20034;-66
2022/01/08 12:20:58;;;;;;;27.87;24.83;;;;;;;;;;5014121;28;20018;-66
2022/01/08 12:23:40;;;;;;;36.20;27.93;;;;;;;;;;5010571;28;20042;-66
2022/01/08 12:26:10;;;;;;;38.63;26.13;;;;;;;;;;5010432;28;20030;-66
2022/01/08 12:28:53;;;;;;;38.57;26.77;;;;;;;;;;5012715;28;20387;-65
2022/01/08 12:31:59;;;;;;;29.47;26.30;;;;;;;;;;5002581;28;20030;-65
2022/01/08 12:34:27;;;;;;;30.43;24.97;;;;;;;;;;5012544;28;20042;-66
2022/01/08 12:36:56;;;;;;;31.80;24.80;;;;;;;;;;5007085;28;20027;-65
2022/01/08 12:39:41;;;;;;;31.87;26.17;;;;;;;;;;5011708;28;20061;-65
2022/01/08 12:42:19;;;;;;;31.42;25.00;;;;;;;;;;5013691;28;20026;-65
2022/01/08 12:45:01;;;;;;;29.43;24.07;;;;;;;;;;5015533;28;20029;-65
2022/01/08 12:47:41;;;;;;;31.43;24.00;;;;;;;;;;5013614;28;20026;-66
2022/01/08 12:50:16;;;;;;;33.47;24.63;;;;;;;;;;5007600;28;20487;-66
2022/01/08 12:53:02;;;;;;;31.10;23.52;;;;;;;;;;5009771;28;20155;-67
2022/01/08 12:55:28;;;;;;;28.07;23.90;;;;;;;;;;5014554;28;20034;-67
2022/01/08 12:57:54;;;;;;;26.90;20.90;;;;;;;;;;5013267;28;20030;-66
2022/01/08 13:00:20;;;;;;;26.87;21.70;;;;;;;;;;4997086;28;20034;-65
2022/01/08 13:02:47;;;;;;;28.10;21.80;;;;;;;;;;5012990;28;20092;-64
2022/01/08 13:05:13;;;;;;;25.50;21.40;;;;;;;;;;5015635;28;20029;-64
2022/01/08 13:07:49;;;;;;;26.57;21.67;;;;;;;;;;5012719;28;20057;-65
2022/01/08 13:10:16;;;;;;;23.67;20.07;;;;;;;;;;5014368;28;20040;-64
2022/01/08 13:12:42;;;;;;;27.20;22.07;;;;;;;;;;5011613;28;20064;-64
2022/01/08 13:15:08;;;;;;;26.27;22.33;;;;;;;;;;5011761;28;20034;-64
2022/01/08 13:17:34;;;;;;;25.37;20.70;;;;;;;;;;5014616;28;20030;-64
2022/01/08 13:20:01;;;;;;;27.57;21.83;;;;;;;;;;5015812;28;20076;-65
2022/01/08 13:22:28;;;;;;;26.50;22.87;;;;;;;;;;5004815;28;20062;-65
2022/01/08 13:24:54;;;;;;;27.93;23.10;;;;;;;;;;5009254;28;20037;-65
2022/01/08 13:27:22;;;;;;;28.80;22.17;;;;;;;;;;5013955;28;20468;-64
2022/01/08 13:29:49;;;;;;;26.13;22.20;;;;;;;;;;5009869;28;20129;-65
2022/01/08 13:32:19;;;;;;;24.87;20.77;;;;;;;;;;5004423;28;20538;-65
2022/01/08 13:34:45;;;;;;;26.87;21.50;;;;;;;;;;5012333;28;20030;-64
2022/01/08 13:37:11;;;;;;;29.53;21.60;;;;;;;;;;5010708;28;20037;-66
2022/01/08 13:39:37;;;;;;;26.57;21.97;;;;;;;;;;5011319;28;20029;-67
2022/01/08 13:42:14;;;;;;;26.37;21.70;;;;;;;;;;5014503;28;20041;-67
2022/01/08 13:44:41;;;;;;;32.50;25.97;;;;;;;;;;5008602;28;20104;-66
2022/01/08 13:47:17;;;;;;;43.63;28.73;;;;;;;;;;5011557;28;20040;-66
2022/01/08 13:49:45;;;;;;;38.53;29.83;;;;;;;;;;5010865;28;20026;-66
2022/01/08 13:52:16;;;;;;;37.17;31.00;;;;;;;;;;5012288;28;20358;-66
2022/01/08 13:54:42;;;;;;;41.83;30.63;;;;;;;;;;5012484;28;20038;-67
2022/01/08 13:57:19;;;;;;;39.97;30.53;;;;;;;;;;5012766;28;20030;-67
2022/01/08 13:59:45;;;;;;;45.50;31.80;;;;;;;;;;5010993;28;20021;-66
2022/01/08 14:02:11;;;;;;;48.50;32.97;;;;;;;;;;5012964;28;20038;-66
2022/01/08 14:04:39;;;;;;;44.33;33.00;;;;;;;;;;5011750;28;20032;-65
2022/01/08 14:07:05;;;;;;;45.00;33.40;;;;;;;;;;5011435;28;20036;-65
2022/01/08 14:09:32;;;;;;;42.83;32.83;;;;;;;;;;5011335;28;20034;-66
2022/01/08 14:12:11;;;;;;;45.27;34.03;;;;;;;;;;5010125;28;20014;-65
2022/01/08 14:14:41;;;;;;;44.93;33.77;;;;;;;;;;5011947;28;20125;-65
2022/01/08 14:17:20;;;;;;;46.50;35.60;;;;;;;;;;5013278;28;20030;-65
2022/01/08 14:19:47;;;;;;;52.47;37.00;;;;;;;;;;5012177;28;20036;-66
2022/01/08 14:22:21;;;;;;;53.93;35.90;;;;;;;;;;5013084;28;20029;-66
2022/01/08 14:24:49;;;;;;;55.37;38.03;;;;;;;;;;5012308;28;20038;-66
2022/01/08 14:27:17;;;;;;;51.43;36.23;;;;;;;;;;5012961;28;20033;-65
2022/01/08 14:29:45;;;;;;;55.27;36.93;;;;;;;;;;5012750;28;20030;-66
2022/01/08 14:32:11;;;;;;;49.10;35.87;;;;;;;;;;5013912;28;20029;-65
2022/01/08 14:34:44;;;;;;;56.50;38.70;;;;;;;;;;5011516;28;20109;-66
2022/01/08 14:37:14;;;;;;;56.03;37.53;;;;;;;;;;5016677;28;20030;-66
2022/01/08 14:39:41;;;;;;;53.57;37.23;;;;;;;;;;5012817;28;20574;-66
2022/01/08 14:42:17;;;;;;;51.63;37.57;;;;;;;;;;5012548;28;20372;-66
2022/01/08 14:44:50;;;;;;;54.50;38.07;;;;;;;;;;5011723;28;20034;-66
2022/01/08 14:47:16;;;;;;;56.13;37.67;;;;;;;;;;5012815;28;20030;-66
2022/01/08 14:49:42;;;;;;;52.70;35.73;;;;;;;;;;5011981;28;20034;-66